sensor_id;sensor_type;location;lat;lon;timestamp;temperature;humidity
84971;DHT22;75278;51.926;4.562;2024-03-02T00:00:21;6.6;100
84971;DHT22;75278;51.926;4.562;2024-03-02T00:02:20;6.6;100
84971;DHT22;75278;51.926;4.562;2024-03-02T00:04:20;6.5;100
84971;DHT22;75278;51.926;4.562;2024-03-02T00:06:20;6.5;100
84971;DHT22;75278;51.926;4.562;2024-03-02T00:08:24;6.5;100
84971;DHT22;75278;51.926;4.562;2024-03-02T00:10:22;6.5;100
84971;DHT22;75278;51.926;4.562;2024-03-02T00:12:20;6.5;100
84971;DHT22;75278;51.926;4.562;2024-03-02T00:14:20;6.5;100
84971;DHT22;75278;51.926;4.562;2024-03-02T00:16:20;6.5;100
84971;DHT22;75278;51.926;4.562;2024-03-02T00:18:21;6.5;100
84971;DHT22;75278;51.926;4.562;2024-03-02T00:20:21;6.5;100
84971;DHT22;75278;51.926;4.562;2024-03-02T00:22:20;6.5;100
84971;DHT22;75278;51.926;4.562;2024-03-02T00:24:21;6.4;100
84971;DHT22;75278;51.926;4.562;2024-03-02T00:26:20;6.4;100
84971;DHT22;75278;51.926;4.562;2024-03-02T00:28:24;6.4;100
84971;DHT22;75278;51.926;4.562;2024-03-02T00:30:44;6.4;100
84971;DHT22;75278;51.926;4.562;2024-03-02T00:32:20;6.4;100
84971;DHT22;75278;51.926;4.562;2024-03-02T00:34:20;6.4;100
84971;DHT22;75278;51.926;4.562;2024-03-02T00:36:22;6.4;100
84971;DHT22;75278;51.926;4.562;2024-03-02T00:38:21;6.4;100
84971;DHT22;75278;51.926;4.562;2024-03-02T00:40:20;6.4;100
84971;DHT22;75278;51.926;4.562;2024-03-02T00:42:20;6.3;100
84971;DHT22;75278;51.926;4.562;2024-03-02T00:44:20;6.3;100
84971;DHT22;75278;51.926;4.562;2024-03-02T00:46:20;6.3;100
84971;DHT22;75278;51.926;4.562;2024-03-02T00:48:23;6.3;100
84971;DHT22;75278;51.926;4.562;2024-03-02T00:50:20;6.3;100
84971;DHT22;75278;51.926;4.562;2024-03-02T00:52:20;6.3;100
84971;DHT22;75278;51.926;4.562;2024-03-02T00:54:21;6.3;100
84971;DHT22;75278;51.926;4.562;2024-03-02T00:56:20;6.3;100
84971;DHT22;75278;51.926;4.562;2024-03-02T00:58:23;6.3;100
84971;DHT22;75278;51.926;4.562;2024-03-02T01:00:20;6.2;100
84971;DHT22;75278;51.926;4.562;2024-03-02T01:02:20;6.2;100
84971;DHT22;75278;51.926;4.562;2024-03-02T01:04:20;6.2;100
84971;DHT22;75278;51.926;4.562;2024-03-02T01:06:20;6.2;100
84971;DHT22;75278;51.926;4.562;2024-03-02T01:08:20;6.2;100
84971;DHT22;75278;51.926;4.562;2024-03-02T01:10:20;6.2;100
84971;DHT22;75278;51.926;4.562;2024-03-02T01:12:21;6.2;100
84971;DHT22;75278;51.926;4.562;2024-03-02T01:14:20;6.1;100
84971;DHT22;75278;51.926;4.562;2024-03-02T01:16:20;6.1;100
84971;DHT22;75278;51.926;4.562;2024-03-02T01:18:24;6.1;100
84971;DHT22;75278;51.926;4.562;2024-03-02T01:20:20;6.1;100
84971;DHT22;75278;51.926;4.562;2024-03-02T01:22:20;6.1;100
84971;DHT22;75278;51.926;4.562;2024-03-02T01:24:21;6.1;100
84971;DHT22;75278;51.926;4.562;2024-03-02T01:26:23;6.1;100
84971;DHT22;75278;51.926;4.562;2024-03-02T01:28:20;6.1;100
84971;DHT22;75278;51.926;4.562;2024-03-02T01:30:20;6.2;100
84971;DHT22;75278;51.926;4.562;2024-03-02T01:32:20;6.2;100
84971;DHT22;75278;51.926;4.562;2024-03-02T01:34:20;6.2;100
84971;DHT22;75278;51.926;4.562;2024-03-02T01:36:20;6.2;100
84971;DHT22;75278;51.926;4.562;2024-03-02T01:38:20;6.2;100
84971;DHT22;75278;51.926;4.562;2024-03-02T01:40:20;6.2;100
84971;DHT22;75278;51.926;4.562;2024-03-02T01:42:20;6.2;100
84971;DHT22;75278;51.926;4.562;2024-03-02T01:44:20;6.2;100
84971;DHT22;75278;51.926;4.562;2024-03-02T01:46:20;6.2;100
84971;DHT22;75278;51.926;4.562;2024-03-02T01:48:20;6.2;100
84971;DHT22;75278;51.926;4.562;2024-03-02T01:50:24;6.2;100
84971;DHT22;75278;51.926;4.562;2024-03-02T01:52:20;6.2;100
84971;DHT22;75278;51.926;4.562;2024-03-02T01:54:20;6.2;100
84971;DHT22;75278;51.926;4.562;2024-03-02T01:56:20;6.2;100
84971;DHT22;75278;51.926;4.562;2024-03-02T01:58:20;6.2;100
84971;DHT22;75278;51.926;4.562;2024-03-02T01:58:25;6.2;100
84971;DHT22;75278;51.926;4.562;2024-03-02T02:00:21;6.2;100
84971;DHT22;75278;51.926;4.562;2024-03-02T02:02:20;6.2;100
84971;DHT22;75278;51.926;4.562;2024-03-02T02:04:20;6.2;100
84971;DHT22;75278;51.926;4.562;2024-03-02T02:06:21;6.2;100
84971;DHT22;75278;51.926;4.562;2024-03-02T02:08:20;6.2;100
84971;DHT22;75278;51.926;4.562;2024-03-02T02:10:20;6.2;100
84971;DHT22;75278;51.926;4.562;2024-03-02T02:12:24;6.2;100
84971;DHT22;75278;51.926;4.562;2024-03-02T02:14:20;6.3;100
84971;DHT22;75278;51.926;4.562;2024-03-02T02:16:24;6.3;100
84971;DHT22;75278;51.926;4.562;2024-03-02T02:18:21;6.3;100
84971;DHT22;75278;51.926;4.562;2024-03-02T02:20:20;6.3;100
84971;DHT22;75278;51.926;4.562;2024-03-02T02:22:20;6.3;100
84971;DHT22;75278;51.926;4.562;2024-03-02T02:24:20;6.3;100
84971;DHT22;75278;51.926;4.562;2024-03-02T02:26:20;6.2;100
84971;DHT22;75278;51.926;4.562;2024-03-02T02:28:20;6.3;100
84971;DHT22;75278;51.926;4.562;2024-03-02T02:30:21;6.3;100
84971;DHT22;75278;51.926;4.562;2024-03-02T02:32:23;6.3;100
84971;DHT22;75278;51.926;4.562;2024-03-02T02:34:20;6.2;100
84971;DHT22;75278;51.926;4.562;2024-03-02T02:36:20;6.2;100
84971;DHT22;75278;51.926;4.562;2024-03-02T02:38:20;6.2;100
84971;DHT22;75278;51.926;4.562;2024-03-02T02:40:21;6.2;100
84971;DHT22;75278;51.926;4.562;2024-03-02T02:42:24;6.2;100
84971;DHT22;75278;51.926;4.562;2024-03-02T02:44:20;6.1;100
84971;DHT22;75278;51.926;4.562;2024-03-02T02:46:21;6.1;100
84971;DHT22;75278;51.926;4.562;2024-03-02T02:48:20;6.1;100
84971;DHT22;75278;51.926;4.562;2024-03-02T02:50:20;6.1;100
84971;DHT22;75278;51.926;4.562;2024-03-02T02:52:20;6.1;100
84971;DHT22;75278;51.926;4.562;2024-03-02T02:54:21;6.0;100
84971;DHT22;75278;51.926;4.562;2024-03-02T02:56:20;6.1;100
84971;DHT22;75278;51.926;4.562;2024-03-02T02:58:20;6.1;100
84971;DHT22;75278;51.926;4.562;2024-03-02T03:00:21;6.1;100
84971;DHT22;75278;51.926;4.562;2024-03-02T03:02:20;6.2;100
84971;DHT22;75278;51.926;4.562;2024-03-02T03:04:21;6.2;100
84971;DHT22;75278;51.926;4.562;2024-03-02T03:06:20;6.2;100
84971;DHT22;75278;51.926;4.562;2024-03-02T03:08:20;6.2;100
84971;DHT22;75278;51.926;4.562;2024-03-02T03:10:20;6.2;100
84971;DHT22;75278;51.926;4.562;2024-03-02T03:12:21;6.3;100
84971;DHT22;75278;51.926;4.562;2024-03-02T03:14:20;6.3;100
84971;DHT22;75278;51.926;4.562;2024-03-02T03:16:21;6.3;100
84971;DHT22;75278;51.926;4.562;2024-03-02T03:18:20;6.3;100
84971;DHT22;75278;51.926;4.562;2024-03-02T03:20:20;6.3;100
84971;DHT22;75278;51.926;4.562;2024-03-02T03:22:20;6.3;100
84971;DHT22;75278;51.926;4.562;2024-03-02T03:24:20;6.3;100
84971;DHT22;75278;51.926;4.562;2024-03-02T03:26:24;6.3;100
84971;DHT22;75278;51.926;4.562;2024-03-02T03:28:20;6.4;100
84971;DHT22;75278;51.926;4.562;2024-03-02T03:30:20;6.4;100
84971;DHT22;75278;51.926;4.562;2024-03-02T03:32:21;6.4;100
84971;DHT22;75278;51.926;4.562;2024-03-02T03:34:20;6.3;100
84971;DHT22;75278;51.926;4.562;2024-03-02T03:36:20;6.3;100
84971;DHT22;75278;51.926;4.562;2024-03-02T03:38:24;6.3;100
84971;DHT22;75278;51.926;4.562;2024-03-02T03:40:20;6.1;100
84971;DHT22;75278;51.926;4.562;2024-03-02T03:42:20;6.0;100
84971;DHT22;75278;51.926;4.562;2024-03-02T03:44:21;5.9;100
84971;DHT22;75278;51.926;4.562;2024-03-02T03:46:21;5.9;100
84971;DHT22;75278;51.926;4.562;2024-03-02T03:48:21;5.9;100
84971;DHT22;75278;51.926;4.562;2024-03-02T03:50:21;5.9;100
84971;DHT22;75278;51.926;4.562;2024-03-02T03:52:20;5.9;100
84971;DHT22;75278;51.926;4.562;2024-03-02T03:54:20;5.9;100
84971;DHT22;75278;51.926;4.562;2024-03-02T03:56:21;5.8;100
84971;DHT22;75278;51.926;4.562;2024-03-02T03:58:21;5.9;100
84971;DHT22;75278;51.926;4.562;2024-03-02T03:58:25;5.9;100
84971;DHT22;75278;51.926;4.562;2024-03-02T04:00:21;5.8;100
84971;DHT22;75278;51.926;4.562;2024-03-02T04:02:21;5.8;100
84971;DHT22;75278;51.926;4.562;2024-03-02T04:04:21;5.8;100
84971;DHT22;75278;51.926;4.562;2024-03-02T04:06:20;5.8;100
84971;DHT22;75278;51.926;4.562;2024-03-02T04:08:20;5.8;100
84971;DHT22;75278;51.926;4.562;2024-03-02T04:10:24;5.8;100
84971;DHT22;75278;51.926;4.562;2024-03-02T04:12:21;5.8;100
84971;DHT22;75278;51.926;4.562;2024-03-02T04:14:24;5.8;100
84971;DHT22;75278;51.926;4.562;2024-03-02T04:16:22;5.8;100
84971;DHT22;75278;51.926;4.562;2024-03-02T04:18:20;5.8;100
84971;DHT22;75278;51.926;4.562;2024-03-02T04:20:20;5.7;100
84971;DHT22;75278;51.926;4.562;2024-03-02T04:22:21;5.7;100
84971;DHT22;75278;51.926;4.562;2024-03-02T04:24:20;5.7;100
84971;DHT22;75278;51.926;4.562;2024-03-02T04:26:24;5.7;100
84971;DHT22;75278;51.926;4.562;2024-03-02T04:28:24;5.8;100
84971;DHT22;75278;51.926;4.562;2024-03-02T04:30:24;5.8;100
84971;DHT22;75278;51.926;4.562;2024-03-02T04:32:24;5.9;100
84971;DHT22;75278;51.926;4.562;2024-03-02T04:34:20;5.9;100
84971;DHT22;75278;51.926;4.562;2024-03-02T04:36:20;5.8;100
84971;DHT22;75278;51.926;4.562;2024-03-02T04:38:28;5.9;100
84971;DHT22;75278;51.926;4.562;2024-03-02T04:39:47;5.9;100
84971;DHT22;75278;51.926;4.562;2024-03-02T04:41:47;5.9;100
84971;DHT22;75278;51.926;4.562;2024-03-02T04:43:47;5.9;100
84971;DHT22;75278;51.926;4.562;2024-03-02T04:45:50;6.0;100
84971;DHT22;75278;51.926;4.562;2024-03-02T04:47:47;5.9;100
84971;DHT22;75278;51.926;4.562;2024-03-02T04:49:47;5.9;100
84971;DHT22;75278;51.926;4.562;2024-03-02T04:51:47;5.9;100
84971;DHT22;75278;51.926;4.562;2024-03-02T04:53:47;5.9;100
84971;DHT22;75278;51.926;4.562;2024-03-02T04:55:47;6.0;100
84971;DHT22;75278;51.926;4.562;2024-03-02T04:57:47;5.9;100
84971;DHT22;75278;51.926;4.562;2024-03-02T04:59:47;5.9;100
84971;DHT22;75278;51.926;4.562;2024-03-02T05:01:47;5.8;100
84971;DHT22;75278;51.926;4.562;2024-03-02T05:03:47;5.8;100
84971;DHT22;75278;51.926;4.562;2024-03-02T05:05:47;5.7;100
84971;DHT22;75278;51.926;4.562;2024-03-02T05:07:47;5.6;100
84971;DHT22;75278;51.926;4.562;2024-03-02T05:09:47;5.5;100
84971;DHT22;75278;51.926;4.562;2024-03-02T05:11:47;5.5;100
84971;DHT22;75278;51.926;4.562;2024-03-02T05:13:47;5.4;100
84971;DHT22;75278;51.926;4.562;2024-03-02T05:15:50;5.4;100
84971;DHT22;75278;51.926;4.562;2024-03-02T05:17:47;5.5;100
84971;DHT22;75278;51.926;4.562;2024-03-02T05:19:47;5.5;100
84971;DHT22;75278;51.926;4.562;2024-03-02T05:21:50;5.6;100
84971;DHT22;75278;51.926;4.562;2024-03-02T05:23:47;5.7;100
84971;DHT22;75278;51.926;4.562;2024-03-02T05:25:47;5.7;100
84971;DHT22;75278;51.926;4.562;2024-03-02T05:27:47;5.8;100
84971;DHT22;75278;51.926;4.562;2024-03-02T05:29:47;5.8;100
84971;DHT22;75278;51.926;4.562;2024-03-02T05:31:47;5.9;100
84971;DHT22;75278;51.926;4.562;2024-03-02T05:33:47;5.9;100
84971;DHT22;75278;51.926;4.562;2024-03-02T05:35:47;6.0;100
84971;DHT22;75278;51.926;4.562;2024-03-02T05:37:47;6.0;100
84971;DHT22;75278;51.926;4.562;2024-03-02T05:39:47;6.1;100
84971;DHT22;75278;51.926;4.562;2024-03-02T05:41:47;6.1;99
84971;DHT22;75278;51.926;4.562;2024-03-02T05:43:50;6.1;99
84971;DHT22;75278;51.926;4.562;2024-03-02T05:45:47;6.1;99
84971;DHT22;75278;51.926;4.562;2024-03-02T05:47:47;6.2;99
84971;DHT22;75278;51.926;4.562;2024-03-02T05:49:47;6.2;99
84971;DHT22;75278;51.926;4.562;2024-03-02T05:51:47;6.2;99
84971;DHT22;75278;51.926;4.562;2024-03-02T05:53:50;6.2;99
84971;DHT22;75278;51.926;4.562;2024-03-02T05:55:47;6.1;99
84971;DHT22;75278;51.926;4.562;2024-03-02T05:57:47;6.2;98
84971;DHT22;75278;51.926;4.562;2024-03-02T05:59:47;6.2;98
84971;DHT22;75278;51.926;4.562;2024-03-02T06:01:47;6.2;97
84971;DHT22;75278;51.926;4.562;2024-03-02T06:03:47;6.2;97
84971;DHT22;75278;51.926;4.562;2024-03-02T06:05:47;6.2;97
84971;DHT22;75278;51.926;4.562;2024-03-02T06:07:47;6.1;98
84971;DHT22;75278;51.926;4.562;2024-03-02T06:09:47;6.1;98
84971;DHT22;75278;51.926;4.562;2024-03-02T06:11:47;6.1;99
84971;DHT22;75278;51.926;4.562;2024-03-02T06:13:47;6.1;98
84971;DHT22;75278;51.926;4.562;2024-03-02T06:15:47;6.0;99
84971;DHT22;75278;51.926;4.562;2024-03-02T06:17:50;6.0;98
84971;DHT22;75278;51.926;4.562;2024-03-02T06:19:47;5.9;99
84971;DHT22;75278;51.926;4.562;2024-03-02T06:21:47;5.9;99
84971;DHT22;75278;51.926;4.562;2024-03-02T06:23:47;5.9;99
84971;DHT22;75278;51.926;4.562;2024-03-02T06:25:47;5.9;99
84971;DHT22;75278;51.926;4.562;2024-03-02T06:27:47;6.0;99
84971;DHT22;75278;51.926;4.562;2024-03-02T06:29:47;6.0;99
84971;DHT22;75278;51.926;4.562;2024-03-02T06:31:47;6.0;99
84971;DHT22;75278;51.926;4.562;2024-03-02T06:33:47;6.0;99
84971;DHT22;75278;51.926;4.562;2024-03-02T06:35:47;6.0;98
84971;DHT22;75278;51.926;4.562;2024-03-02T06:37:47;6.0;98
84971;DHT22;75278;51.926;4.562;2024-03-02T06:39:50;6.0;98
84971;DHT22;75278;51.926;4.562;2024-03-02T06:41:47;6.0;98
84971;DHT22;75278;51.926;4.562;2024-03-02T06:43:47;6.0;98
84971;DHT22;75278;51.926;4.562;2024-03-02T06:45:47;6.0;98
84971;DHT22;75278;51.926;4.562;2024-03-02T06:47:47;5.9;98
84971;DHT22;75278;51.926;4.562;2024-03-02T06:49:47;5.8;98
84971;DHT22;75278;51.926;4.562;2024-03-02T06:51:47;5.8;98
84971;DHT22;75278;51.926;4.562;2024-03-02T06:53:47;5.7;98
84971;DHT22;75278;51.926;4.562;2024-03-02T06:55:47;5.7;98
84971;DHT22;75278;51.926;4.562;2024-03-02T06:57:47;5.7;98
84971;DHT22;75278;51.926;4.562;2024-03-02T06:59:47;5.6;99
84971;DHT22;75278;51.926;4.562;2024-03-02T07:01:47;5.6;98
84971;DHT22;75278;51.926;4.562;2024-03-02T07:03:47;5.6;98
84971;DHT22;75278;51.926;4.562;2024-03-02T07:05:47;5.6;99
84971;DHT22;75278;51.926;4.562;2024-03-02T07:07:47;5.6;99
84971;DHT22;75278;51.926;4.562;2024-03-02T07:09:47;5.6;99
84971;DHT22;75278;51.926;4.562;2024-03-02T07:11:47;5.6;99
84971;DHT22;75278;51.926;4.562;2024-03-02T07:13:47;5.7;99
84971;DHT22;75278;51.926;4.562;2024-03-02T07:15:47;5.7;98
84971;DHT22;75278;51.926;4.562;2024-03-02T07:17:50;5.8;98
84971;DHT22;75278;51.926;4.562;2024-03-02T07:19:47;5.8;98
84971;DHT22;75278;51.926;4.562;2024-03-02T07:21:47;5.8;98
84971;DHT22;75278;51.926;4.562;2024-03-02T07:23:47;5.9;98
84971;DHT22;75278;51.926;4.562;2024-03-02T07:25:47;6.1;98
84971;DHT22;75278;51.926;4.562;2024-03-02T07:27:47;6.1;97
84971;DHT22;75278;51.926;4.562;2024-03-02T07:29:47;6.1;97
84971;DHT22;75278;51.926;4.562;2024-03-02T07:31:47;6.1;97
84971;DHT22;75278;51.926;4.562;2024-03-02T07:33:47;6.2;96
84971;DHT22;75278;51.926;4.562;2024-03-02T07:35:47;6.3;96
84971;DHT22;75278;51.926;4.562;2024-03-02T07:37:47;6.3;96
84971;DHT22;75278;51.926;4.562;2024-03-02T07:39:47;6.4;96
84971;DHT22;75278;51.926;4.562;2024-03-02T07:41:47;6.5;96
84971;DHT22;75278;51.926;4.562;2024-03-02T07:43:47;6.5;95
84971;DHT22;75278;51.926;4.562;2024-03-02T07:45:47;6.6;95
84971;DHT22;75278;51.926;4.562;2024-03-02T07:47:47;6.7;95
84971;DHT22;75278;51.926;4.562;2024-03-02T07:49:47;6.8;94
84971;DHT22;75278;51.926;4.562;2024-03-02T07:51:47;6.9;94
84971;DHT22;75278;51.926;4.562;2024-03-02T07:53:47;6.9;94
84971;DHT22;75278;51.926;4.562;2024-03-02T07:55:47;6.9;94
84971;DHT22;75278;51.926;4.562;2024-03-02T07:57:50;6.9;94
84971;DHT22;75278;51.926;4.562;2024-03-02T07:59:47;6.9;94
84971;DHT22;75278;51.926;4.562;2024-03-02T08:01:48;6.9;94
84971;DHT22;75278;51.926;4.562;2024-03-02T08:03:47;6.9;94
84971;DHT22;75278;51.926;4.562;2024-03-02T08:05:47;6.9;94
84971;DHT22;75278;51.926;4.562;2024-03-02T08:07:47;6.9;94
84971;DHT22;75278;51.926;4.562;2024-03-02T08:09:47;6.9;94
84971;DHT22;75278;51.926;4.562;2024-03-02T08:11:47;7.0;95
84971;DHT22;75278;51.926;4.562;2024-03-02T08:13:47;7.2;95
84971;DHT22;75278;51.926;4.562;2024-03-02T08:15:47;7.5;94
84971;DHT22;75278;51.926;4.562;2024-03-02T08:17:47;7.6;93
84971;DHT22;75278;51.926;4.562;2024-03-02T08:19:47;8.2;94
84971;DHT22;75278;51.926;4.562;2024-03-02T08:21:47;8.9;91
84971;DHT22;75278;51.926;4.562;2024-03-02T08:23:47;9.6;90
84971;DHT22;75278;51.926;4.562;2024-03-02T08:25:50;10.3;89
84971;DHT22;75278;51.926;4.562;2024-03-02T08:27:47;10.9;81
84971;DHT22;75278;51.926;4.562;2024-03-02T08:29:47;10.9;80
84971;DHT22;75278;51.926;4.562;2024-03-02T08:31:50;11.0;81
84971;DHT22;75278;51.926;4.562;2024-03-02T08:33:47;11.2;80
84971;DHT22;75278;51.926;4.562;2024-03-02T08:35:47;11.5;79
84971;DHT22;75278;51.926;4.562;2024-03-02T08:37:47;11.5;77
84971;DHT22;75278;51.926;4.562;2024-03-02T08:39:47;11.5;76
84971;DHT22;75278;51.926;4.562;2024-03-02T08:41:47;11.6;77
84971;DHT22;75278;51.926;4.562;2024-03-02T08:43:47;11.5;77
84971;DHT22;75278;51.926;4.562;2024-03-02T08:45:47;11.6;77
84971;DHT22;75278;51.926;4.562;2024-03-02T08:47:50;11.7;77
84971;DHT22;75278;51.926;4.562;2024-03-02T08:49:50;11.8;78
84971;DHT22;75278;51.926;4.562;2024-03-02T08:51:47;11.9;79
84971;DHT22;75278;51.926;4.562;2024-03-02T08:53:47;12.0;76
84971;DHT22;75278;51.926;4.562;2024-03-02T08:55:47;11.9;75
84971;DHT22;75278;51.926;4.562;2024-03-02T08:57:47;12.1;76
84971;DHT22;75278;51.926;4.562;2024-03-02T08:59:47;12.3;75
84971;DHT22;75278;51.926;4.562;2024-03-02T09:01:47;12.5;77
84971;DHT22;75278;51.926;4.562;2024-03-02T09:03:47;13.0;76
84971;DHT22;75278;51.926;4.562;2024-03-02T09:05:50;13.4;74
84971;DHT22;75278;51.926;4.562;2024-03-02T09:07:47;13.3;71
84971;DHT22;75278;51.926;4.562;2024-03-02T09:09:47;13.2;74
84971;DHT22;75278;51.926;4.562;2024-03-02T09:11:47;13.2;72
84971;DHT22;75278;51.926;4.562;2024-03-02T09:13:47;13.1;71
84971;DHT22;75278;51.926;4.562;2024-03-02T09:15:50;13.1;73
84971;DHT22;75278;51.926;4.562;2024-03-02T09:17:47;12.9;69
84971;DHT22;75278;51.926;4.562;2024-03-02T09:19:47;12.7;70
84971;DHT22;75278;51.926;4.562;2024-03-02T09:21:47;12.5;71
84971;DHT22;75278;51.926;4.562;2024-03-02T09:23:47;12.3;69
84971;DHT22;75278;51.926;4.562;2024-03-02T09:25:47;12.0;70
84971;DHT22;75278;51.926;4.562;2024-03-02T09:27:47;11.9;72
84971;DHT22;75278;51.926;4.562;2024-03-02T09:29:47;12.0;72
84971;DHT22;75278;51.926;4.562;2024-03-02T09:33:47;12.3;76
84971;DHT22;75278;51.926;4.562;2024-03-02T09:35:47;12.5;75
84971;DHT22;75278;51.926;4.562;2024-03-02T09:37:47;12.8;73
84971;DHT22;75278;51.926;4.562;2024-03-02T09:39:47;12.6;72
84971;DHT22;75278;51.926;4.562;2024-03-02T09:41:47;12.4;71
84971;DHT22;75278;51.926;4.562;2024-03-02T09:43:47;12.1;71
84971;DHT22;75278;51.926;4.562;2024-03-02T09:45:47;11.9;72
84971;DHT22;75278;51.926;4.562;2024-03-02T09:47:47;11.9;72
84971;DHT22;75278;51.926;4.562;2024-03-02T09:49:47;11.7;72
84971;DHT22;75278;51.926;4.562;2024-03-02T09:51:47;11.7;73
84971;DHT22;75278;51.926;4.562;2024-03-02T09:53:47;11.7;75
84971;DHT22;75278;51.926;4.562;2024-03-02T09:55:47;11.6;74
84971;DHT22;75278;51.926;4.562;2024-03-02T09:57:47;11.4;74
84971;DHT22;75278;51.926;4.562;2024-03-02T09:59:47;11.3;77
84971;DHT22;75278;51.926;4.562;2024-03-02T10:01:55;11.3;75
84971;DHT22;75278;51.926;4.562;2024-03-02T10:03:47;11.3;76
84971;DHT22;75278;51.926;4.562;2024-03-02T10:05:47;11.3;75
84971;DHT22;75278;51.926;4.562;2024-03-02T10:07:50;11.3;75
84971;DHT22;75278;51.926;4.562;2024-03-02T10:09:48;11.2;76
84971;DHT22;75278;51.926;4.562;2024-03-02T10:11:48;11.2;75
84971;DHT22;75278;51.926;4.562;2024-03-02T10:13:47;11.1;75
84971;DHT22;75278;51.926;4.562;2024-03-02T10:15:47;11.0;75
84971;DHT22;75278;51.926;4.562;2024-03-02T10:17:47;10.9;75
84971;DHT22;75278;51.926;4.562;2024-03-02T10:19:47;10.8;76
84971;DHT22;75278;51.926;4.562;2024-03-02T10:21:48;10.9;77
84971;DHT22;75278;51.926;4.562;2024-03-02T10:23:48;11.0;78
84971;DHT22;75278;51.926;4.562;2024-03-02T10:25:47;11.0;75
84971;DHT22;75278;51.926;4.562;2024-03-02T10:27:49;10.9;76
84971;DHT22;75278;51.926;4.562;2024-03-02T10:29:48;10.9;78
84971;DHT22;75278;51.926;4.562;2024-03-02T10:31:47;11.0;76
84971;DHT22;75278;51.926;4.562;2024-03-02T10:33:47;11.0;75
84971;DHT22;75278;51.926;4.562;2024-03-02T10:35:47;10.9;75
84971;DHT22;75278;51.926;4.562;2024-03-02T10:37:47;11.0;75
84971;DHT22;75278;51.926;4.562;2024-03-02T10:39:47;11.0;75
84971;DHT22;75278;51.926;4.562;2024-03-02T10:41:47;11.1;74
84971;DHT22;75278;51.926;4.562;2024-03-02T10:43:47;11.1;74
84971;DHT22;75278;51.926;4.562;2024-03-02T10:45:47;11.1;74
84971;DHT22;75278;51.926;4.562;2024-03-02T10:47:47;11.2;73
84971;DHT22;75278;51.926;4.562;2024-03-02T10:49:47;11.3;74
84971;DHT22;75278;51.926;4.562;2024-03-02T10:51:47;11.4;72
84971;DHT22;75278;51.926;4.562;2024-03-02T10:53:47;11.3;73
84971;DHT22;75278;51.926;4.562;2024-03-02T10:55:47;11.3;72
84971;DHT22;75278;51.926;4.562;2024-03-02T10:57:50;11.2;71
84971;DHT22;75278;51.926;4.562;2024-03-02T10:59:51;11.2;74
84971;DHT22;75278;51.926;4.562;2024-03-02T11:01:47;11.1;72
84971;DHT22;75278;51.926;4.562;2024-03-02T11:03:50;11.1;72
84971;DHT22;75278;51.926;4.562;2024-03-02T11:05:47;11.1;71
84971;DHT22;75278;51.926;4.562;2024-03-02T11:07:47;11.1;71
84971;DHT22;75278;51.926;4.562;2024-03-02T11:09:49;11.0;70
84971;DHT22;75278;51.926;4.562;2024-03-02T11:12:00;11.1;71
84971;DHT22;75278;51.926;4.562;2024-03-02T11:13:49;11.0;70
84971;DHT22;75278;51.926;4.562;2024-03-02T11:15:47;11.0;72
84971;DHT22;75278;51.926;4.562;2024-03-02T11:17:47;11.1;74
84971;DHT22;75278;51.926;4.562;2024-03-02T11:19:47;11.2;70
84971;DHT22;75278;51.926;4.562;2024-03-02T11:21:47;11.3;72
84971;DHT22;75278;51.926;4.562;2024-03-02T11:23:47;11.4;71
84971;DHT22;75278;51.926;4.562;2024-03-02T11:25:47;11.6;73
84971;DHT22;75278;51.926;4.562;2024-03-02T11:29:47;11.8;70
84971;DHT22;75278;51.926;4.562;2024-03-02T11:33:47;12.0;69
84971;DHT22;75278;51.926;4.562;2024-03-02T11:35:47;12.1;69
84971;DHT22;75278;51.926;4.562;2024-03-02T11:37:47;12.2;70
84971;DHT22;75278;51.926;4.562;2024-03-02T11:39:49;12.2;67
84971;DHT22;75278;51.926;4.562;2024-03-02T11:41:47;12.1;66
84971;DHT22;75278;51.926;4.562;2024-03-02T11:43:50;12.0;65
84971;DHT22;75278;51.926;4.562;2024-03-02T11:45:47;12.0;66
84971;DHT22;75278;51.926;4.562;2024-03-02T11:47:49;12.0;66
84971;DHT22;75278;51.926;4.562;2024-03-02T11:49:48;12.2;65
84971;DHT22;75278;51.926;4.562;2024-03-02T11:51:50;12.1;64
84971;DHT22;75278;51.926;4.562;2024-03-02T11:53:47;12.1;66
84971;DHT22;75278;51.926;4.562;2024-03-02T11:55:47;12.1;65
84971;DHT22;75278;51.926;4.562;2024-03-02T11:57:47;12.3;66
84971;DHT22;75278;51.926;4.562;2024-03-02T11:59:47;12.4;67
84971;DHT22;75278;51.926;4.562;2024-03-02T12:01:47;12.6;67
84971;DHT22;75278;51.926;4.562;2024-03-02T12:03:47;12.8;66
84971;DHT22;75278;51.926;4.562;2024-03-02T12:05:47;13.0;64
84971;DHT22;75278;51.926;4.562;2024-03-02T12:07:47;13.1;64
84971;DHT22;75278;51.926;4.562;2024-03-02T12:09:47;13.1;64
84971;DHT22;75278;51.926;4.562;2024-03-02T12:11:47;13.0;62
84971;DHT22;75278;51.926;4.562;2024-03-02T12:13:51;12.8;62
84971;DHT22;75278;51.926;4.562;2024-03-02T12:15:47;12.8;64
84971;DHT22;75278;51.926;4.562;2024-03-02T12:17:47;12.8;65
84971;DHT22;75278;51.926;4.562;2024-03-02T12:19:47;12.8;65
84971;DHT22;75278;51.926;4.562;2024-03-02T12:21:47;12.8;64
84971;DHT22;75278;51.926;4.562;2024-03-02T12:23:47;12.8;62
84971;DHT22;75278;51.926;4.562;2024-03-02T12:25:47;12.6;62
84971;DHT22;75278;51.926;4.562;2024-03-02T12:27:47;12.5;63
84971;DHT22;75278;51.926;4.562;2024-03-02T12:29:47;12.4;64
84971;DHT22;75278;51.926;4.562;2024-03-02T12:31:47;12.5;65
84971;DHT22;75278;51.926;4.562;2024-03-02T12:33:47;12.7;64
84971;DHT22;75278;51.926;4.562;2024-03-02T12:35:50;12.8;63
84971;DHT22;75278;51.926;4.562;2024-03-02T12:37:47;13.0;62
84971;DHT22;75278;51.926;4.562;2024-03-02T12:39:47;13.1;63
84971;DHT22;75278;51.926;4.562;2024-03-02T12:41:47;13.0;62
84971;DHT22;75278;51.926;4.562;2024-03-02T12:43:47;12.9;62
84971;DHT22;75278;51.926;4.562;2024-03-02T12:45:47;12.7;62
84971;DHT22;75278;51.926;4.562;2024-03-02T12:47:47;12.6;64
84971;DHT22;75278;51.926;4.562;2024-03-02T12:49:47;12.6;63
84971;DHT22;75278;51.926;4.562;2024-03-02T12:51:47;12.6;64
84971;DHT22;75278;51.926;4.562;2024-03-02T12:53:52;12.7;64
84971;DHT22;75278;51.926;4.562;2024-03-02T12:55:47;12.8;64
84971;DHT22;75278;51.926;4.562;2024-03-02T12:57:47;12.8;64
84971;DHT22;75278;51.926;4.562;2024-03-02T12:59:47;12.7;63
84971;DHT22;75278;51.926;4.562;2024-03-02T13:01:50;12.7;65
84971;DHT22;75278;51.926;4.562;2024-03-02T13:03:48;12.7;63
84971;DHT22;75278;51.926;4.562;2024-03-02T13:05:50;12.7;64
84971;DHT22;75278;51.926;4.562;2024-03-02T13:07:47;12.6;63
84971;DHT22;75278;51.926;4.562;2024-03-02T13:09:47;12.5;63
84971;DHT22;75278;51.926;4.562;2024-03-02T13:11:47;12.6;62
84971;DHT22;75278;51.926;4.562;2024-03-02T13:13:47;12.6;64
84971;DHT22;75278;51.926;4.562;2024-03-02T13:15:50;12.6;63
84971;DHT22;75278;51.926;4.562;2024-03-02T13:17:47;12.8;64
84971;DHT22;75278;51.926;4.562;2024-03-02T13:19:51;12.9;64
84971;DHT22;75278;51.926;4.562;2024-03-02T13:21:47;12.9;63
84971;DHT22;75278;51.926;4.562;2024-03-02T13:23:47;12.8;63
84971;DHT22;75278;51.926;4.562;2024-03-02T13:25:47;12.9;62
84971;DHT22;75278;51.926;4.562;2024-03-02T13:27:47;12.9;63
84971;DHT22;75278;51.926;4.562;2024-03-02T13:29:47;13.0;64
84971;DHT22;75278;51.926;4.562;2024-03-02T13:31:47;13.0;63